Greenslough, Ireland
Current Conditions -  °F | °C
As of 4:00 PM on Wednesday 26 Nov 2014 (Local Time) from EIDL Reporting Station
Clear Clear  
Wind Chill: 41°   Ceiling: Unl
Heat Index: 45°   Visibility: 6mi
Dew Point: 41°   Wind: 7mph
Humidity: 87%   Direction: 140°SE
Pressure: 29.85"   Gusts: NA
Location:  55.12°N, 7.9°W
Report Text: EIDL 261600Z 14006KT CAVOK 07/05 Q1011
Loading
Personal Weather Stations






























Interactive Weather Map New forecast layout! Learn more

10-Day Weather Forecast

Advertisements
Track Severe Weather on mobile